Hauptseite
METAR-TAF:

METAR-TAF

Flughäfen :

Mitiga International Airport

Tripolis, Libyen

Breite: 32-54N, Länge: 13-17E, Höhe: 11 m

METAR: fehlend

Zeit: 09:37 (07:37 UTC)

Prognose

Neuester Wetterbericht von vor 2 Stunden und 37 Minuten, um 05:00 UTC
Gültige Prognose vom 13 um 06 UTC bis 14 um 06 UTC
Wind 2 kt aus unterschiedlichen Richtungen
Sichtweite: 8000 m
Wahrscheinlichkeit 30%
zwischen 30 und 00 UTC
feuchter Dunst,

TAF: HLLM 130500Z 1306/1406 VRB02KT 8000 NSC BECMG1312/1314 36010KT BECMG1318/1320 VRB02KT PROB30TEMPO1402/1406 3000 BR

Wetterbeobachtungen und Prognosen von mehr als 4000 Flughäfen (METAR und TAF Bericht).

Die verfügbaren Stationen werden durch gelbe und rote Markierungen auf der Karte dargestellt.

Führen Sie die Maus auf sie, um den Namen der Station zu sehen.

Darauf klicken, um die Beobachtung von Wetterbeobachtungen und Prognosen zu sehen.

Um die Karte zu ändern : klicken Sie auf den grünen Tasten mit einem schwarzen Kreuz Zum Vergrößern, auf den grünen Button mit einem Gedankenstrich zu verkleinern, oder auf die grünen Pfeile für benachbarte Karten.


METAR-TAF: